createdAt,value
2018-09-03T00:01:34.963Z,22.03
2018-09-03T00:03:10.415Z,21.17
2018-09-03T00:04:45.871Z,19.93
2018-09-03T00:06:21.384Z,18.90
2018-09-03T00:07:56.934Z,19.10
2018-09-03T00:09:37.886Z,19.33
2018-09-03T00:11:13.312Z,18.53
2018-09-03T00:12:48.748Z,16.40
2018-09-03T00:14:24.200Z,17.50
2018-09-03T00:15:59.623Z,18.73
2018-09-03T00:17:35.033Z,22.80
2018-09-03T00:19:10.480Z,20.00
2018-09-03T00:20:47.229Z,19.67
2018-09-03T00:22:22.911Z,20.00
2018-09-03T00:23:58.331Z,20.07
2018-09-03T00:25:33.753Z,20.57
2018-09-03T00:27:09.233Z,19.07
2018-09-03T00:28:44.662Z,17.90
2018-09-03T00:30:20.095Z,19.17
2018-09-03T00:32:01.110Z,21.40
2018-09-03T00:33:41.844Z,19.83
2018-09-03T00:35:22.632Z,19.47
2018-09-03T00:37:03.452Z,19.93
2018-09-03T00:38:44.169Z,18.60
2018-09-03T00:40:24.902Z,18.13
2018-09-03T00:42:05.728Z,17.87
2018-09-03T00:43:46.585Z,20.17
2018-09-03T00:45:27.533Z,19.57
2018-09-03T00:47:06.447Z,21.37
2018-09-03T00:48:41.968Z,19.70
2018-09-03T00:50:17.398Z,19.37
2018-09-03T00:51:52.853Z,20.30
2018-09-03T00:53:29.932Z,22.17
2018-09-03T00:55:05.417Z,21.60
2018-09-03T00:56:40.863Z,20.83
2018-09-03T00:58:20.064Z,19.90
2018-09-03T00:59:55.488Z,20.27
2018-09-03T01:01:30.949Z,18.60
2018-09-03T01:03:06.573Z,18.83
2018-09-03T01:04:42.027Z,18.67
2018-09-03T01:06:17.548Z,18.57
2018-09-03T01:07:53.099Z,18.80
2018-09-03T01:09:28.670Z,19.00
2018-09-03T01:11:04.145Z,18.80
2018-09-03T01:12:39.627Z,22.77
2018-09-03T01:14:15.136Z,22.13
2018-09-03T01:15:51.403Z,19.90
2018-09-03T01:17:26.828Z,20.43
2018-09-03T01:19:02.381Z,20.60
2018-09-03T01:20:37.809Z,20.43
2018-09-03T01:22:13.299Z,18.77
2018-09-03T01:23:48.759Z,17.87
2018-09-03T01:25:24.168Z,18.63
2018-09-03T01:26:59.581Z,19.93
2018-09-03T01:28:35.297Z,21.03
2018-09-03T01:30:10.691Z,20.60
2018-09-03T01:31:46.177Z,20.20
2018-09-03T01:33:21.633Z,18.60
2018-09-03T01:34:57.142Z,19.17
2018-09-03T01:36:32.561Z,20.03
2018-09-03T01:38:08.039Z,18.67
2018-09-03T01:39:43.893Z,16.93
2018-09-03T01:41:20.014Z,17.53
2018-09-03T01:42:55.453Z,17.07
2018-09-03T01:44:31.195Z,17.80
2018-09-03T01:46:06.642Z,18.87
2018-09-03T01:47:42.517Z,18.80
2018-09-03T01:49:18.014Z,18.23
2018-09-03T01:50:53.501Z,18.67
2018-09-03T01:52:28.939Z,19.80
2018-09-03T01:54:04.446Z,19.17
2018-09-03T01:55:39.874Z,18.87
2018-09-03T01:57:15.338Z,19.73
2018-09-03T01:58:50.790Z,18.33
2018-09-03T02:00:26.361Z,17.50
2018-09-03T02:02:01.789Z,18.17
2018-09-03T02:03:37.220Z,17.93
2018-09-03T02:05:12.708Z,17.77
2018-09-03T02:06:48.201Z,16.77
2018-09-03T02:08:23.676Z,20.40
2018-09-03T02:09:59.120Z,20.13
2018-09-03T02:11:35.101Z,19.23
2018-09-03T02:13:10.585Z,17.83
2018-09-03T02:14:46.026Z,18.20
2018-09-03T02:16:21.473Z,16.33
2018-09-03T02:17:56.912Z,17.40
2018-09-03T02:19:32.401Z,17.33
2018-09-03T02:21:08.268Z,18.00
2018-09-03T02:22:44.130Z,16.20
2018-09-03T02:24:19.602Z,15.93
2018-09-03T02:25:55.064Z,16.20
2018-09-03T02:27:31.114Z,17.60
2018-09-03T02:29:06.752Z,17.43
2018-09-03T02:30:42.237Z,15.83
2018-09-03T02:32:17.686Z,14.77
2018-09-03T02:33:53.181Z,16.63
2018-09-03T02:35:28.647Z,16.40
2018-09-03T02:37:04.083Z,18.47
2018-09-03T02:38:40.373Z,16.67
2018-09-03T02:40:16.795Z,15.93
2018-09-03T02:41:52.241Z,15.60
2018-09-03T02:43:27.752Z,16.17
2018-09-03T02:45:03.241Z,16.43
2018-09-03T02:46:38.679Z,17.33
2018-09-03T02:48:14.109Z,20.40
2018-09-03T02:49:49.555Z,21.83
2018-09-03T02:51:24.993Z,23.87
2018-09-03T02:53:00.763Z,22.40
2018-09-03T02:54:36.577Z,20.23
2018-09-03T02:56:12.057Z,22.70
2018-09-03T02:57:47.500Z,22.30
2018-09-03T02:59:22.969Z,20.30
2018-09-03T03:00:58.408Z,19.43
2018-09-03T03:02:33.895Z,19.20
2018-09-03T03:04:09.382Z,18.87
2018-09-03T03:05:51.397Z,16.63
2018-09-03T03:07:27.517Z,16.03
2018-09-03T03:09:03.703Z,20.97
2018-09-03T03:10:39.148Z,19.47
2018-09-03T03:12:18.762Z,21.10
2018-09-03T03:13:54.316Z,19.87
2018-09-03T03:15:29.749Z,21.93
2018-09-03T03:17:05.575Z,22.00
2018-09-03T03:18:41.088Z,19.87
2018-09-03T03:20:16.497Z,20.83
2018-09-03T03:21:51.920Z,22.67
2018-09-03T03:23:27.444Z,21.30
2018-09-03T03:25:02.940Z,18.67
2018-09-03T03:26:38.415Z,18.20
2018-09-03T03:28:13.872Z,20.33
2018-09-03T03:29:49.365Z,20.57
2018-09-03T03:31:25.504Z,21.60
2018-09-03T03:33:00.966Z,19.90
2018-09-03T03:34:36.433Z,20.13
2018-09-03T03:36:11.918Z,19.63
2018-09-03T03:37:47.941Z,21.63
2018-09-03T03:39:23.445Z,17.90
2018-09-03T03:40:59.515Z,17.57
2018-09-03T03:42:35.041Z,17.17
2018-09-03T03:44:10.484Z,16.67
2018-09-03T03:45:45.945Z,16.20
2018-09-03T03:47:21.570Z,16.70
2018-09-03T03:48:57.027Z,16.07
2018-09-03T03:50:33.689Z,15.80
2018-09-03T03:52:09.167Z,15.83
2018-09-03T03:53:44.638Z,19.20
2018-09-03T03:55:20.161Z,18.03
2018-09-03T03:56:55.565Z,18.03
2018-09-03T03:58:30.981Z,18.80
2018-09-03T04:00:06.841Z,17.50
2018-09-03T04:01:42.374Z,17.33
2018-09-03T04:03:17.884Z,16.47
2018-09-03T04:04:53.392Z,17.10
2018-09-03T04:06:28.905Z,16.03
2018-09-03T04:08:04.362Z,16.87
2018-09-03T04:09:40.641Z,16.10
2018-09-03T04:11:16.097Z,19.50
2018-09-03T04:12:57.992Z,20.73
2018-09-03T04:14:33.434Z,19.90
2018-09-03T04:16:09.882Z,16.93
2018-09-03T04:17:45.397Z,16.87
2018-09-03T04:19:20.860Z,18.67
2018-09-03T04:20:56.599Z,15.73
2018-09-03T04:22:32.871Z,17.60
2018-09-03T04:24:09.301Z,21.00
2018-09-03T04:25:45.058Z,20.77
2018-09-03T04:27:20.479Z,19.77
2018-09-03T04:28:56.349Z,17.90
2018-09-03T04:30:31.685Z,16.27
2018-09-03T04:32:07.166Z,15.63
2018-09-03T04:33:42.573Z,16.47
2018-09-03T04:35:18.085Z,19.50
2018-09-03T04:36:53.899Z,21.57
2018-09-03T04:38:29.379Z,18.03
2018-09-03T04:40:04.845Z,17.73
2018-09-03T04:41:40.304Z,17.73
2018-09-03T04:43:16.861Z,18.13
2018-09-03T04:44:53.177Z,19.30
2018-09-03T04:46:29.130Z,17.30
2018-09-03T04:48:04.639Z,18.37
2018-09-03T04:49:40.105Z,17.87
2018-09-03T04:51:15.725Z,17.17
2018-09-03T04:52:51.351Z,16.60
2018-09-03T04:54:26.815Z,18.57
2018-09-03T04:56:02.361Z,19.07
2018-09-03T04:57:37.896Z,21.30
2018-09-03T04:59:13.414Z,20.67
2018-09-03T05:00:49.234Z,20.00
2018-09-03T05:02:24.707Z,19.70
2018-09-03T05:04:00.428Z,19.90
2018-09-03T05:05:35.844Z,20.50
2018-09-03T05:07:11.967Z,18.50
2018-09-03T05:08:47.580Z,20.17
2018-09-03T05:10:24.090Z,18.63
2018-09-03T05:12:00.040Z,20.57
2018-09-03T05:13:35.930Z,18.30
2018-09-03T05:15:16.912Z,18.63
2018-09-03T05:16:53.798Z,19.67
2018-09-03T05:18:29.267Z,21.50
2018-09-03T05:20:07.835Z,20.07
2018-09-03T05:21:43.813Z,19.60
2018-09-03T05:23:19.423Z,19.47
2018-09-03T05:24:54.972Z,19.13
2018-09-03T05:26:30.481Z,22.63
2018-09-03T05:28:05.942Z,20.27
2018-09-03T05:29:41.452Z,20.83
2018-09-03T05:31:18.165Z,18.37
2018-09-03T05:32:53.738Z,19.07
2018-09-03T05:34:29.183Z,16.13
2018-09-03T05:36:04.686Z,17.73
2018-09-03T05:37:40.184Z,17.73
2018-09-03T05:39:15.647Z,18.60
2018-09-03T05:40:51.127Z,18.10
2018-09-03T05:42:26.565Z,18.67
2018-09-03T05:44:02.151Z,18.20
2018-09-03T05:45:37.612Z,16.37
2018-09-03T05:47:13.340Z,17.37
2018-09-03T05:48:48.807Z,16.47
2018-09-03T05:50:24.377Z,16.40
2018-09-03T05:51:59.788Z,16.77
2018-09-03T05:53:35.346Z,18.87
2018-09-03T05:55:10.825Z,19.33
2018-09-03T05:56:46.284Z,19.60
2018-09-03T05:58:22.422Z,18.33
2018-09-03T05:59:57.877Z,17.83
2018-09-03T06:01:33.349Z,17.90
2018-09-03T06:03:09.938Z,17.97
2018-09-03T06:04:45.480Z,19.10
2018-09-03T06:06:21.510Z,16.57
2018-09-03T06:07:56.975Z,15.37
2018-09-03T06:09:32.484Z,17.90
2018-09-03T06:11:08.158Z,16.07
2018-09-03T06:12:43.582Z,16.73
2018-09-03T06:14:18.997Z,15.67
2018-09-03T06:15:54.760Z,15.70
2018-09-03T06:17:30.228Z,15.03
2018-09-03T06:19:05.728Z,15.33
2018-09-03T06:20:41.699Z,15.53
2018-09-03T06:22:17.252Z,15.97
2018-09-03T06:23:52.698Z,15.23
2018-09-03T06:25:29.032Z,20.80
2018-09-03T06:27:10.071Z,19.23
2018-09-03T06:28:45.808Z,20.90
2018-09-03T06:30:21.319Z,19.87
2018-09-03T06:31:56.816Z,16.57
2018-09-03T06:33:32.308Z,16.53
2018-09-03T06:35:09.043Z,20.17
2018-09-03T06:36:44.597Z,17.97
2018-09-03T06:38:20.092Z,16.87
2018-09-03T06:39:55.518Z,18.33
2018-09-03T06:41:31.001Z,19.73
2018-09-03T06:43:06.932Z,20.43
2018-09-03T06:44:42.991Z,22.47
2018-09-03T06:46:19.010Z,29.43
2018-09-03T06:47:54.502Z,29.37
2018-09-03T06:49:30.073Z,31.40
2018-09-03T06:51:05.721Z,29.70
2018-09-03T06:52:41.343Z,26.33
2018-09-03T06:54:16.750Z,26.10
2018-09-03T06:55:52.492Z,25.07
2018-09-03T06:57:27.985Z,23.47
2018-09-03T06:59:03.450Z,22.97
2018-09-03T07:00:38.880Z,23.90
2018-09-03T07:02:14.594Z,25.70
2018-09-03T07:03:50.161Z,23.13
2018-09-03T07:05:25.852Z,25.30
2018-09-03T07:07:01.279Z,26.10
2018-09-03T07:08:37.277Z,25.33
2018-09-03T07:10:12.722Z,23.40
2018-09-03T07:11:48.177Z,20.33
2018-09-03T07:13:23.624Z,22.30
2018-09-03T07:14:59.101Z,21.53
2018-09-03T07:16:34.673Z,20.83
2018-09-03T07:18:10.464Z,20.93
2018-09-03T07:19:46.001Z,20.53
2018-09-03T07:21:21.423Z,19.67
2018-09-03T07:22:56.961Z,21.03
2018-09-03T07:24:33.260Z,22.87
2018-09-03T07:26:08.764Z,18.93
2018-09-03T07:27:44.409Z,19.37
2018-09-03T07:29:20.576Z,23.40
2018-09-03T07:30:57.342Z,20.97
2018-09-03T07:32:32.945Z,23.37
2018-09-03T07:34:08.410Z,20.13
2018-09-03T07:35:43.857Z,21.00
2018-09-03T07:37:20.002Z,20.23
2018-09-03T07:38:56.170Z,22.67
2018-09-03T07:40:31.810Z,20.23
2018-09-03T07:42:07.561Z,23.30
2018-09-03T07:43:43.019Z,21.93
2018-09-03T07:45:18.583Z,19.87
2018-09-03T07:46:54.400Z,18.03
2018-09-03T07:48:31.846Z,17.53
2018-09-03T07:50:07.559Z,16.63
2018-09-03T07:51:43.256Z,18.50
2018-09-03T07:53:20.001Z,17.47
2018-09-03T07:54:55.539Z,18.20
2018-09-03T07:56:31.075Z,17.93
2018-09-03T07:58:06.899Z,16.90
2018-09-03T07:59:42.445Z,17.33
2018-09-03T08:01:18.127Z,18.10
2018-09-03T08:02:54.781Z,19.43
2018-09-03T08:04:30.265Z,19.07
2018-09-03T08:06:06.388Z,17.80
2018-09-03T08:07:41.897Z,18.07
2018-09-03T08:09:17.439Z,20.17
2018-09-03T08:10:52.876Z,19.47
2018-09-03T08:12:28.337Z,19.43
2018-09-03T08:14:03.877Z,19.87
2018-09-03T08:15:39.357Z,20.50
2018-09-03T08:17:15.018Z,18.30
2018-09-03T08:18:50.594Z,16.20
2018-09-03T08:20:26.048Z,17.10
2018-09-03T08:22:02.061Z,17.10
2018-09-03T08:23:37.532Z,20.37
2018-09-03T08:25:13.040Z,18.87
2018-09-03T08:26:49.503Z,21.57
2018-09-03T08:28:25.000Z,21.40
2018-09-03T08:30:00.492Z,23.17
2018-09-03T08:31:35.986Z,22.97
2018-09-03T08:33:11.740Z,20.07
2018-09-03T08:34:48.737Z,21.73
2018-09-03T08:36:25.193Z,23.80
2018-09-03T08:38:00.733Z,20.73
2018-09-03T08:39:36.173Z,21.70
2018-09-03T08:41:11.650Z,24.40
2018-09-03T08:42:47.095Z,22.87
2018-09-03T08:44:22.577Z,21.70
2018-09-03T08:45:57.983Z,19.23
2018-09-03T08:47:33.426Z,21.93
2018-09-03T08:49:09.548Z,19.10
2018-09-03T08:50:45.972Z,21.43
2018-09-03T08:52:21.416Z,24.80
2018-09-03T08:53:58.452Z,21.33
2018-09-03T08:55:33.965Z,22.40
2018-09-03T08:57:09.454Z,23.03
2018-09-03T08:58:45.009Z,21.43
2018-09-03T09:00:20.460Z,22.20
2018-09-03T09:01:56.076Z,21.63
2018-09-03T09:03:36.855Z,21.97
2018-09-03T09:05:12.653Z,22.10
2018-09-03T09:06:56.170Z,21.33
2018-09-03T09:08:31.622Z,22.53
2018-09-03T09:10:07.145Z,22.70
2018-09-03T09:11:42.878Z,22.10
2018-09-03T09:13:19.688Z,21.47
2018-09-03T09:14:55.551Z,24.83
2018-09-03T09:16:31.456Z,21.73
2018-09-03T09:18:07.477Z,23.83
2018-09-03T09:19:43.329Z,21.10
2018-09-03T09:21:20.086Z,19.80
2018-09-03T09:22:55.963Z,22.57
2018-09-03T09:24:31.890Z,22.70
2018-09-03T09:26:07.760Z,23.03
2018-09-03T09:27:43.651Z,23.63
2018-09-03T09:29:21.324Z,20.77
2018-09-03T09:30:57.188Z,22.03
2018-09-03T09:32:35.040Z,21.60
2018-09-03T09:34:11.036Z,19.07
2018-09-03T09:35:52.537Z,21.63
2018-09-03T09:37:28.954Z,21.87
2018-09-03T09:39:08.810Z,23.20
2018-09-03T09:40:48.091Z,25.70
2018-09-03T09:42:24.219Z,23.37
2018-09-03T09:44:00.220Z,24.30
2018-09-03T09:45:36.171Z,24.77
2018-09-03T09:47:14.055Z,23.43
2018-09-03T09:48:50.906Z,20.47
2018-09-03T09:50:26.819Z,18.23
2018-09-03T09:52:02.665Z,20.03
2018-09-03T09:53:38.555Z,20.77
2018-09-03T09:55:15.148Z,18.47
2018-09-03T09:56:51.110Z,21.53
2018-09-03T09:58:28.596Z,20.50
2018-09-03T10:00:04.921Z,18.67
2018-09-03T10:01:40.806Z,17.70
2018-09-03T10:03:17.116Z,18.80
2018-09-03T10:04:53.018Z,19.17
2018-09-03T10:06:29.206Z,19.83
2018-09-03T10:08:06.418Z,19.83
2018-09-03T10:09:42.490Z,17.87
2018-09-03T10:11:18.911Z,17.37
2018-09-03T10:12:59.741Z,17.23
2018-09-03T10:14:35.903Z,17.27
2018-09-03T10:16:12.231Z,19.80
2018-09-03T10:17:48.249Z,18.53
2018-09-03T10:19:24.365Z,18.93
2018-09-03T10:21:00.299Z,16.63
2018-09-03T10:22:37.459Z,15.70
2018-09-03T10:24:13.377Z,16.30
2018-09-03T10:25:49.401Z,16.23
2018-09-03T10:27:25.505Z,16.43
2018-09-03T10:29:03.506Z,16.17
2018-09-03T10:30:39.429Z,16.00
2018-09-03T10:32:15.643Z,16.37
2018-09-03T10:33:51.834Z,14.40
2018-09-03T10:35:27.689Z,13.43
2018-09-03T10:37:03.569Z,14.67
2018-09-03T10:38:54.438Z,15.33
2018-09-03T10:40:30.305Z,13.50
2018-09-03T10:42:06.233Z,14.37
2018-09-03T10:43:42.110Z,14.50
2018-09-03T10:45:17.123Z,14.80
2018-09-03T10:46:52.706Z,12.23
2018-09-03T10:48:28.967Z,11.90
2018-09-03T10:50:06.155Z,13.80
2018-09-03T10:51:42.348Z,12.37
2018-09-03T10:53:18.337Z,12.13
2018-09-03T10:54:54.187Z,11.80
2018-09-03T10:56:30.051Z,11.23
2018-09-03T10:58:07.572Z,10.87
2018-09-03T10:59:44.680Z,12.20
2018-09-03T11:01:20.681Z,12.57
2018-09-03T11:02:57.106Z,12.97
2018-09-03T11:04:32.774Z,11.83
2018-09-03T11:06:08.553Z,12.80
2018-09-03T11:07:44.014Z,12.17
2018-09-03T11:09:19.858Z,12.47
2018-09-03T11:10:55.370Z,12.00
2018-09-03T11:12:31.622Z,11.13
2018-09-03T11:14:09.220Z,11.93
2018-09-03T11:15:44.658Z,12.90
2018-09-03T11:17:21.238Z,13.13
2018-09-03T11:18:57.067Z,12.60
2018-09-03T11:20:33.493Z,12.13
2018-09-03T11:22:12.377Z,12.30
2018-09-03T11:23:49.523Z,13.60
2018-09-03T11:25:28.193Z,12.50
2018-09-03T11:27:05.770Z,12.93
2018-09-03T11:28:42.957Z,13.27
2018-09-03T11:30:20.907Z,13.23
2018-09-03T11:31:56.393Z,11.47
2018-09-03T11:33:33.907Z,13.93
2018-09-03T11:35:09.402Z,13.67
2018-09-03T11:36:46.841Z,13.80
2018-09-03T11:38:22.359Z,13.07
2018-09-03T11:39:57.816Z,13.40
2018-09-03T11:41:35.069Z,13.23
2018-09-03T11:43:12.889Z,13.90
2018-09-03T11:44:48.474Z,12.37
2018-09-03T11:46:23.931Z,12.37
2018-09-03T11:47:59.359Z,13.23
2018-09-03T11:49:36.850Z,12.17
2018-09-03T11:51:16.423Z,12.53
2018-09-03T11:52:54.773Z,14.87
2018-09-03T11:54:31.978Z,12.20
2018-09-03T11:56:08.163Z,13.50
2018-09-03T11:57:45.226Z,14.10
2018-09-03T11:59:20.808Z,13.40
2018-09-03T12:01:00.438Z,15.93
2018-09-03T12:02:37.704Z,17.03
2018-09-03T12:04:13.141Z,16.87
2018-09-03T12:05:49.759Z,17.60
2018-09-03T12:07:28.490Z,15.07
2018-09-03T12:09:08.116Z,19.53
2018-09-03T12:10:44.154Z,20.43
2018-09-03T12:12:21.223Z,18.73
2018-09-03T12:13:57.920Z,18.10
2018-09-03T12:15:37.849Z,20.47
2018-09-03T12:17:13.262Z,18.40
2018-09-03T12:18:49.217Z,18.00
2018-09-03T12:20:24.769Z,17.20
2018-09-03T12:22:00.394Z,16.57
2018-09-03T12:23:35.934Z,15.33
2018-09-03T12:25:11.467Z,15.93
2018-09-03T12:26:47.127Z,19.70
2018-09-03T12:28:22.589Z,16.30
2018-09-03T12:29:58.129Z,19.40
2018-09-03T12:31:33.662Z,15.93
2018-09-03T12:33:09.244Z,17.23
2018-09-03T12:34:45.058Z,18.57
2018-09-03T12:36:20.538Z,17.57
2018-09-03T12:37:56.125Z,18.43
2018-09-03T12:39:31.673Z,18.70
2018-09-03T12:41:07.924Z,18.67
2018-09-03T12:42:43.452Z,18.13
2018-09-03T12:44:18.914Z,18.70
2018-09-03T12:45:59.900Z,19.23
2018-09-03T12:47:35.964Z,18.57
2018-09-03T12:49:12.059Z,17.40
2018-09-03T12:50:47.602Z,18.93
2018-09-03T12:52:23.249Z,19.20
2018-09-03T12:53:59.005Z,17.80
2018-09-03T12:55:35.042Z,16.67
2018-09-03T12:57:11.334Z,15.40
2018-09-03T12:58:46.856Z,18.90
2018-09-03T13:00:22.349Z,18.30
2018-09-03T13:01:57.848Z,18.43
2018-09-03T13:03:33.405Z,18.13
2018-09-03T13:05:08.868Z,19.23
2018-09-03T13:06:44.478Z,17.60
2018-09-03T13:08:20.780Z,15.83
2018-09-03T13:09:56.970Z,18.23
2018-09-03T13:11:33.071Z,17.37
2018-09-03T13:13:09.915Z,18.67
2018-09-03T13:14:45.736Z,17.27
2018-09-03T13:16:21.176Z,18.70
2018-09-03T13:17:58.036Z,20.03
2018-09-03T13:19:33.542Z,18.50
2018-09-03T13:21:10.250Z,19.87
2018-09-03T13:22:45.931Z,19.90
2018-09-03T13:24:22.128Z,20.17
2018-09-03T13:25:58.100Z,18.50
2018-09-03T13:27:33.920Z,19.23
2018-09-03T13:30:51.957Z,18.67
2018-09-03T13:32:28.558Z,19.10
2018-09-03T13:34:05.336Z,19.40
2018-09-03T13:35:42.016Z,20.23
2018-09-03T13:37:20.086Z,19.93
2018-09-03T13:38:55.921Z,18.13
2018-09-03T13:40:31.765Z,19.70
2018-09-03T13:42:07.271Z,20.03
2018-09-03T13:43:42.718Z,18.40
2018-09-03T13:45:18.292Z,19.20
2018-09-03T13:46:53.724Z,19.87
2018-09-03T13:48:29.258Z,20.10
2018-09-03T13:50:04.873Z,18.10
2018-09-03T13:51:40.545Z,20.43
2018-09-03T13:53:16.098Z,20.67
2018-09-03T13:54:51.708Z,16.90
2018-09-03T13:56:27.187Z,19.13
2018-09-03T13:58:02.623Z,21.20
2018-09-03T13:59:39.806Z,19.33
2018-09-03T14:01:15.364Z,18.93
2018-09-03T14:02:50.850Z,18.23
2018-09-03T14:04:27.086Z,19.40
2018-09-03T14:06:02.741Z,19.30
2018-09-03T14:07:38.512Z,18.67
2018-09-03T14:09:14.146Z,17.70
2018-09-03T14:10:49.807Z,17.53
2018-09-03T14:12:25.350Z,18.70
2018-09-03T14:14:01.389Z,19.87
2018-09-03T14:15:38.901Z,15.97
2018-09-03T14:17:14.439Z,19.03
2018-09-03T14:18:50.346Z,19.17
2018-09-03T14:20:26.780Z,18.73
2018-09-03T14:22:05.266Z,20.87
2018-09-03T14:23:40.905Z,18.60
2018-09-03T14:25:16.447Z,19.43
2018-09-03T14:26:52.011Z,20.80
2018-09-03T14:28:32.098Z,20.67
2018-09-03T14:30:09.901Z,20.93
2018-09-03T14:31:46.008Z,20.67
2018-09-03T14:33:21.527Z,22.00
2018-09-03T14:34:57.709Z,21.13
2018-09-03T14:36:33.190Z,21.67
2018-09-03T14:38:08.732Z,20.47
2018-09-03T14:39:44.263Z,19.63
2018-09-03T14:41:20.160Z,21.73
2018-09-03T14:42:55.644Z,22.40
2018-09-03T14:44:31.093Z,20.87
2018-09-03T14:46:06.885Z,20.23
2018-09-03T14:47:42.498Z,20.27
2018-09-03T14:49:17.957Z,20.70
2018-09-03T14:50:53.540Z,18.53
2018-09-03T14:52:29.395Z,21.60
2018-09-03T14:54:06.073Z,17.83
2018-09-03T14:55:41.673Z,19.63
2018-09-03T14:57:17.821Z,19.93
2018-09-03T14:58:53.332Z,20.13
2018-09-03T15:00:29.551Z,19.17
2018-09-03T15:02:09.112Z,21.73
2018-09-03T15:03:45.308Z,20.30
2018-09-03T15:05:20.892Z,20.67
2018-09-03T15:06:56.383Z,18.93
2018-09-03T15:08:32.004Z,17.17
2018-09-03T15:10:07.448Z,20.17
2018-09-03T15:11:43.033Z,21.20
2018-09-03T15:13:18.670Z,20.07
2018-09-03T15:14:54.207Z,22.70
2018-09-03T15:16:33.364Z,18.17
2018-09-03T15:18:09.153Z,20.23
2018-09-03T15:19:44.592Z,20.00
2018-09-03T15:21:21.349Z,18.67
2018-09-03T15:22:56.852Z,20.93
2018-09-03T15:24:33.043Z,20.63
2018-09-03T15:26:09.423Z,20.63
2018-09-03T15:27:46.091Z,18.43
2018-09-03T15:29:22.367Z,19.80
2018-09-03T15:30:58.001Z,19.47
2018-09-03T15:32:33.601Z,18.50
2018-09-03T15:34:11.182Z,19.77
2018-09-03T15:35:46.796Z,19.30
2018-09-03T15:37:22.896Z,17.77
2018-09-03T15:38:58.957Z,16.60
2018-09-03T15:40:36.938Z,20.93
2018-09-03T15:42:12.467Z,19.47
2018-09-03T15:43:48.255Z,18.23
2018-09-03T15:45:24.718Z,17.80
2018-09-03T15:48:43.286Z,17.40
2018-09-03T15:50:19.121Z,16.23
2018-09-03T15:51:56.038Z,17.77
2018-09-03T15:53:32.693Z,18.83
2018-09-03T15:55:08.217Z,19.20
2018-09-03T15:56:43.708Z,19.53
2018-09-03T15:58:19.273Z,20.00
2018-09-03T15:59:56.998Z,18.63
2018-09-03T16:01:32.510Z,20.20
2018-09-03T16:03:08.519Z,19.40
2018-09-03T16:04:47.762Z,19.53
2018-09-03T16:06:24.051Z,19.30
2018-09-03T16:08:00.020Z,17.97
2018-09-03T16:09:36.153Z,19.13
2018-09-03T16:11:12.966Z,18.20
2018-09-03T16:12:48.640Z,16.77
2018-09-03T16:14:24.417Z,20.13
2018-09-03T16:16:01.256Z,19.97
2018-09-03T16:17:38.200Z,19.20
2018-09-03T16:19:14.444Z,19.63
2018-09-03T16:20:50.388Z,19.77
2018-09-03T16:22:25.866Z,19.33
2018-09-03T16:24:01.792Z,19.73
2018-09-03T16:25:37.426Z,21.00
2018-09-03T16:27:12.945Z,19.20
2018-09-03T16:28:48.377Z,19.03
2018-09-03T16:30:25.849Z,18.90
2018-09-03T16:32:02.595Z,19.80
2018-09-03T16:33:38.095Z,19.20
2018-09-03T16:35:13.579Z,20.67
2018-09-03T16:36:49.056Z,18.47
2018-09-03T16:38:24.577Z,19.27
2018-09-03T16:40:00.044Z,19.03
2018-09-03T16:41:36.126Z,17.70
2018-09-03T16:43:11.780Z,16.37
2018-09-03T16:44:47.218Z,17.90
2018-09-03T16:46:22.674Z,16.17
2018-09-03T16:47:58.219Z,20.07
2018-09-03T16:49:33.641Z,26.07
2018-09-03T16:51:09.416Z,21.20
2018-09-03T16:52:46.796Z,18.97
2018-09-03T16:54:22.414Z,20.23
2018-09-03T16:55:58.850Z,18.27
2018-09-03T16:57:35.234Z,16.33
2018-09-03T16:59:10.726Z,20.13
2018-09-03T17:00:46.447Z,19.00
2018-09-03T17:02:22.206Z,18.57
2018-09-03T17:03:59.005Z,19.27
2018-09-03T17:05:34.586Z,20.07
2018-09-03T17:07:10.076Z,19.53
2018-09-03T17:08:45.604Z,21.67
2018-09-03T17:10:21.179Z,21.17
2018-09-03T17:11:56.713Z,20.53
2018-09-03T17:13:32.209Z,18.63
2018-09-03T17:15:07.895Z,18.30
2018-09-03T17:16:43.658Z,18.47
2018-09-03T17:18:19.304Z,19.53
2018-09-03T17:19:54.775Z,19.57
2018-09-03T17:21:33.481Z,18.50
2018-09-03T17:23:08.988Z,20.03
2018-09-03T17:24:44.522Z,20.60
2018-09-03T17:26:19.962Z,20.23
2018-09-03T17:27:55.402Z,19.53
2018-09-03T17:29:31.687Z,20.20
2018-09-03T17:31:07.641Z,19.67
2018-09-03T17:32:43.754Z,19.83
2018-09-03T17:34:19.261Z,18.57
2018-09-03T17:35:55.633Z,18.63
2018-09-03T17:37:32.289Z,17.83
2018-09-03T17:39:08.427Z,22.97
2018-09-03T17:40:43.941Z,20.50
2018-09-03T17:42:19.540Z,18.60
2018-09-03T17:43:55.390Z,20.00
2018-09-03T17:45:30.963Z,17.50
2018-09-03T17:47:06.446Z,16.87
2018-09-03T17:48:41.954Z,21.43
2018-09-03T17:50:17.569Z,22.40
2018-09-03T17:51:53.412Z,19.47
2018-09-03T17:53:30.107Z,21.40
2018-09-03T17:55:06.033Z,21.50
2018-09-03T17:56:41.644Z,21.70
2018-09-03T17:58:17.224Z,20.30
2018-09-03T17:59:52.816Z,19.63
2018-09-03T18:01:28.597Z,19.00
2018-09-03T18:03:04.215Z,18.87
2018-09-03T18:04:39.836Z,19.60
2018-09-03T18:06:15.391Z,21.33
2018-09-03T18:07:51.117Z,23.47
2018-09-03T18:09:26.560Z,19.73
2018-09-03T18:11:01.996Z,19.07
2018-09-03T18:12:39.082Z,19.27
2018-09-03T18:14:14.579Z,19.10
2018-09-03T18:15:51.153Z,17.57
2018-09-03T18:17:27.105Z,19.67
2018-09-03T18:19:02.820Z,21.07
2018-09-03T18:20:38.970Z,20.87
2018-09-03T18:22:14.782Z,22.00
2018-09-03T18:23:50.322Z,22.97
2018-09-03T18:25:25.970Z,24.23
2018-09-03T18:27:01.541Z,23.10
2018-09-03T18:28:37.070Z,22.87
2018-09-03T18:30:13.224Z,24.27
2018-09-03T18:31:48.719Z,23.20
2018-09-03T18:33:24.517Z,23.70
2018-09-03T18:35:00.235Z,23.57
2018-09-03T18:36:35.757Z,20.80
2018-09-03T18:38:11.289Z,20.40
2018-09-03T18:39:46.868Z,23.03
2018-09-03T18:41:22.375Z,22.43
2018-09-03T18:42:59.311Z,22.00
2018-09-03T18:44:35.242Z,28.20
2018-09-03T18:46:11.759Z,32.30
2018-09-03T18:47:48.013Z,29.20
2018-09-03T18:49:26.006Z,23.30
2018-09-03T18:51:01.492Z,25.90
2018-09-03T18:52:37.732Z,22.37
2018-09-03T18:54:13.378Z,22.33
2018-09-03T18:55:48.978Z,23.33
2018-09-03T18:57:24.541Z,22.93
2018-09-03T18:59:00.416Z,22.93
2018-09-03T19:00:36.390Z,21.90
2018-09-03T19:02:12.009Z,21.63
2018-09-03T19:03:47.451Z,21.13
2018-09-03T19:05:23.037Z,19.87
2018-09-03T19:06:58.837Z,22.03
2018-09-03T19:08:34.657Z,23.33
2018-09-03T19:10:10.157Z,22.30
2018-09-03T19:11:45.616Z,20.13
2018-09-03T19:13:21.152Z,22.37
2018-09-03T19:14:56.624Z,23.50
2018-09-03T19:16:32.081Z,22.33
2018-09-03T19:18:07.982Z,21.03
2018-09-03T19:19:43.415Z,20.80
2018-09-03T19:21:18.921Z,21.50
2018-09-03T19:22:55.436Z,23.40
2018-09-03T19:24:31.023Z,20.87
2018-09-03T19:26:06.560Z,21.97
2018-09-03T19:27:42.070Z,24.00
2018-09-03T19:29:17.552Z,20.27
2018-09-03T19:30:54.220Z,26.33
2018-09-03T19:32:29.669Z,29.37
2018-09-03T19:34:05.164Z,29.20
2018-09-03T19:35:41.660Z,30.00
2018-09-03T19:37:17.227Z,26.87
2018-09-03T19:38:52.745Z,23.93
2018-09-03T19:40:28.695Z,22.67
2018-09-03T19:42:04.224Z,22.17
2018-09-03T19:43:40.714Z,23.90
2018-09-03T19:45:16.224Z,23.13
2018-09-03T19:46:52.613Z,21.60
2018-09-03T19:48:28.133Z,22.43
2018-09-03T19:50:03.806Z,24.30
2018-09-03T19:51:38.298Z,21.10
2018-09-03T19:53:15.124Z,22.73
2018-09-03T19:54:50.609Z,21.40
2018-09-03T19:56:26.127Z,22.30
2018-09-03T19:58:01.629Z,22.80
2018-09-03T19:59:37.116Z,23.87
2018-09-03T20:01:13.207Z,23.80
2018-09-03T20:02:48.660Z,23.57
2018-09-03T20:04:24.254Z,24.47
2018-09-03T20:06:00.203Z,23.27
2018-09-03T20:07:35.761Z,21.60
2018-09-03T20:09:11.452Z,21.87
2018-09-03T20:10:46.878Z,23.17
2018-09-03T20:12:22.330Z,22.80
2018-09-03T20:13:57.861Z,21.80
2018-09-03T20:15:33.770Z,24.47
2018-09-03T20:17:09.362Z,23.87
2018-09-03T20:18:44.812Z,23.93
2018-09-03T20:20:20.527Z,22.83
2018-09-03T20:21:56.034Z,21.60
2018-09-03T20:23:32.315Z,23.20
2018-09-03T20:25:07.661Z,24.47
2018-09-03T20:26:43.162Z,22.63
2018-09-03T20:28:18.737Z,21.93
2018-09-03T20:29:54.218Z,22.97
2018-09-03T20:31:29.910Z,23.40
2018-09-03T20:33:05.385Z,22.63
2018-09-03T20:34:41.317Z,21.00
2018-09-03T20:36:16.833Z,23.27
2018-09-03T20:37:52.233Z,24.80
2018-09-03T20:39:27.841Z,24.73
2018-09-03T20:41:03.262Z,23.83